Time;durP1;ratioP1;P1;durP2;ratioP2;P2;SDS_P1;SDS_P2;PMS_P1;PMS_P2;Temp;Humidity;BMP_temperature;BMP_pressure;BME280_temperature;BME280_humidity;BME280_pressure;Samples;Min_cycle;Max_cycle;Signal;HPM_P1;HPM_P2
2022/12/17 13:06:53;;;;;;;4.85;1.75;;;21.80;57.80;;;;;;4037820;29;20200;-47
2022/12/17 13:09:15;;;;;;;5.75;1.40;;;21.80;57.50;;;;;;4026608;29;20049;-43
2022/12/17 13:11:38;;;;;;;4.15;1.40;;;21.80;57.10;;;;;;4036324;29;20049;-43
2022/12/17 13:14:06;;;;;;;4.70;1.13;;;21.80;56.90;;;;;;4030048;29;20045;-42
2022/12/17 13:16:48;;;;;;;5.05;1.60;;;21.80;56.80;;;;;;4036377;29;20123;-46
2022/12/17 13:19:31;;;;;;;7.57;2.17;;;21.80;56.80;;;;;;4032375;29;20100;-46
2022/12/17 13:21:53;;;;;;;3.45;1.02;;;21.80;57.10;;;;;;4039554;29;20036;-42
2022/12/17 13:24:26;;;;;;;3.85;1.27;;;21.70;56.90;;;;;;4029348;29;20053;-42
2022/12/17 13:26:49;;;;;;;4.88;1.45;;;21.70;57.20;;;;;;4035886;29;20100;-44
2022/12/17 13:29:31;;;;;;;3.90;1.40;;;21.70;57.20;;;;;;4038156;29;20079;-49
2022/12/17 13:32:23;;;;;;;5.15;1.65;;;21.70;56.90;;;;;;4029939;29;20435;-42
2022/12/17 13:34:51;;;;;;;4.35;1.55;;;21.70;56.90;;;;;;4036874;29;20048;-43
2022/12/17 13:37:46;;;;;;;4.80;1.50;;;21.70;56.90;;;;;;4028535;29;20071;-46
2022/12/17 13:40:14;;;;;;;4.70;0.93;;;21.70;57.20;;;;;;4021796;29;20452;-44
2022/12/17 13:42:37;;;;;;;5.28;1.67;;;21.70;57.00;;;;;;4036891;29;20100;-43
2022/12/17 13:45:00;;;;;;;3.05;1.17;;;21.70;57.00;;;;;;4031852;29;20052;-46
2022/12/17 13:47:30;;;;;;;4.15;1.45;;;21.70;57.10;;;;;;4033639;29;20032;-47
2022/12/17 13:49:58;;;;;;;3.90;1.23;;;21.70;57.10;;;;;;4027265;29;20049;-46
2022/12/17 13:52:25;;;;;;;5.43;1.30;;;21.70;57.10;;;;;;4031381;29;20037;-43
2022/12/17 13:54:47;;;;;;;2.35;1.35;;;21.70;57.00;;;;;;4037994;29;20055;-45
2022/12/17 13:57:15;;;;;;;5.38;1.40;;;21.60;57.00;;;;;;4037809;29;20154;-42
2022/12/17 13:59:38;;;;;;;4.35;1.10;;;21.70;57.00;;;;;;4035714;29;20442;-45
2022/12/17 14:02:00;;;;;;;2.55;1.00;;;21.60;57.00;;;;;;4038300;29;20055;-44
2022/12/17 14:04:25;;;;;;;4.78;1.38;;;21.60;56.90;;;;;;4028407;29;20438;-45
2022/12/17 14:06:49;;;;;;;5.88;1.40;;;21.60;57.30;;;;;;4025942;29;20519;-42
2022/12/17 14:09:17;;;;;;;4.72;1.30;;;21.60;57.00;;;;;;4030824;29;20159;-44
2022/12/17 14:14:37;;;;;;;3.42;1.00;;;21.70;57.20;;;;;;4034211;29;20084;-45
2022/12/17 14:17:00;;;;;;;3.25;1.10;;;21.60;57.00;;;;;;4037579;29;20452;-45
2022/12/17 14:19:24;;;;;;;2.67;1.43;;;21.60;57.40;;;;;;4031365;29;20574;-44
2022/12/17 14:21:47;;;;;;;4.38;1.30;;;21.60;57.30;;;;;;4033063;29;20071;-45
2022/12/17 14:24:13;;;;;;;2.85;1.27;;;21.60;57.50;;;;;;4037042;29;20048;-44
2022/12/17 14:26:46;;;;;;;4.60;1.10;;;21.60;57.30;;;;;;4046403;29;20045;-42
2022/12/17 14:32:32;;;;;;;3.25;1.20;;;21.60;57.20;;;;;;4040876;29;20049;-44
2022/12/17 14:34:54;;;;;;;3.20;0.90;;;21.60;57.40;;;;;;4033043;29;20080;-46
2022/12/17 14:37:20;;;;;;;3.15;1.15;;;21.60;57.40;;;;;;4037245;29;20044;-45
2022/12/17 14:39:48;;;;;;;1.98;0.80;;;21.50;57.30;;;;;;4037687;29;20141;-44
2022/12/17 14:42:24;;;;;;;2.88;0.85;;;21.50;57.50;;;;;;4035426;29;20051;-46
2022/12/17 14:45:27;;;;;;;2.50;1.10;;;21.50;57.50;;;;;;4031088;29;20456;-43
2022/12/17 14:48:03;;;;;;;3.25;1.42;;;21.50;57.60;;;;;;4047594;29;20040;-41
2022/12/17 14:50:34;;;;;;;2.70;1.00;;;21.50;57.80;;;;;;4029828;29;20071;-45
2022/12/17 14:52:59;;;;;;;3.63;1.20;;;21.50;57.70;;;;;;4037058;29;20088;-45
2022/12/17 14:55:32;;;;;;;2.17;0.80;;;21.40;57.70;;;;;;4039520;29;20040;-46
2022/12/17 14:58:13;;;;;;;1.70;0.77;;;21.50;57.60;;;;;;4033957;29;20044;-43
2022/12/17 15:00:52;;;;;;;2.08;0.88;;;21.50;57.60;;;;;;4040200;29;20811;-42
2022/12/17 15:03:28;;;;;;;2.25;0.90;;;21.50;57.50;;;;;;4040873;29;20053;-45
2022/12/17 15:05:56;;;;;;;2.67;0.90;;;21.50;57.90;;;;;;4036361;29;20047;-47
2022/12/17 15:08:19;;;;;;;4.20;1.00;;;21.40;57.50;;;;;;4040648;29;20051;-46
2022/12/17 15:10:41;;;;;;;2.47;0.90;;;21.40;57.50;;;;;;4041426;29;20079;-43
2022/12/17 15:13:04;;;;;;;1.85;0.95;;;21.40;57.60;;;;;;4039634;29;20389;-43
2022/12/17 15:15:27;;;;;;;2.22;0.93;;;21.50;57.50;;;;;;4029206;29;20092;-44
2022/12/17 15:17:51;;;;;;;2.20;0.82;;;21.40;57.50;;;;;;4039443;29;20102;-48
2022/12/17 15:20:17;;;;;;;1.45;0.73;;;21.40;57.50;;;;;;4039927;29;20040;-45
2022/12/17 15:22:40;;;;;;;1.75;0.80;;;21.40;57.40;;;;;;4017728;29;20041;-44
2022/12/17 15:25:03;;;;;;;3.30;1.00;;;21.40;57.60;;;;;;4028238;29;20041;-43
2022/12/17 15:27:25;;;;;;;4.43;0.70;;;21.40;58.20;;;;;;4038652;29;20044;-42
2022/12/17 15:29:48;;;;;;;3.03;0.90;;;21.40;57.90;;;;;;4036713;29;20081;-41
2022/12/17 15:32:22;;;;;;;3.33;0.70;;;21.40;57.60;;;;;;4035996;29;20520;-46
2022/12/17 15:34:45;;;;;;;0.85;0.50;;;21.40;57.90;;;;;;4039608;29;20417;-46
2022/12/17 15:37:08;;;;;;;1.42;0.60;;;21.40;57.80;;;;;;4025374;29;20041;-42
2022/12/17 15:39:30;;;;;;;1.00;0.68;;;21.40;58.00;;;;;;4038444;29;20040;-43
2022/12/17 15:44:34;;;;;;;2.05;0.80;;;21.40;57.70;;;;;;4037688;29;20524;-43
2022/12/17 15:46:56;;;;;;;2.53;1.00;;;21.40;57.80;;;;;;4034825;29;20469;-42
2022/12/17 15:49:20;;;;;;;2.55;1.30;;;21.40;57.60;;;;;;4035930;29;20041;-46
2022/12/17 15:51:42;;;;;;;2.25;1.00;;;21.30;57.80;;;;;;4039011;29;20132;-45
2022/12/17 15:54:05;;;;;;;1.75;0.90;;;21.30;57.80;;;;;;4039540;29;21086;-44
2022/12/17 15:56:28;;;;;;;2.28;0.93;;;21.40;57.90;;;;;;4037313;29;20037;-42
2022/12/17 15:58:51;;;;;;;1.98;0.40;;;21.30;57.70;;;;;;4039038;29;20053;-47
2022/12/17 16:01:14;;;;;;;3.15;0.68;;;21.30;57.60;;;;;;4031848;29;20060;-46
2022/12/17 16:03:36;;;;;;;3.20;0.98;;;21.30;57.80;;;;;;4039804;29;20441;-43
2022/12/17 16:06:01;;;;;;;2.80;1.05;;;21.30;58.00;;;;;;4031485;29;20123;-43
2022/12/17 16:08:23;;;;;;;3.58;0.70;;;21.30;57.90;;;;;;4031017;29;20040;-44
2022/12/17 16:10:46;;;;;;;2.38;0.73;;;21.30;58.00;;;;;;4037884;29;20120;-45
2022/12/17 16:13:08;;;;;;;2.13;0.70;;;21.30;58.00;;;;;;4038354;29;20066;-43
2022/12/17 16:15:31;;;;;;;2.92;0.95;;;21.20;57.90;;;;;;4038542;29;20044;-44
2022/12/17 16:17:54;;;;;;;2.85;0.80;;;21.30;58.30;;;;;;4038688;29;20123;-44
2022/12/17 16:20:16;;;;;;;2.65;0.90;;;21.30;58.30;;;;;;4038693;29;20180;-44
2022/12/17 16:22:39;;;;;;;1.98;0.77;;;21.20;58.20;;;;;;4039832;29;20080;-44
2022/12/17 16:25:01;;;;;;;3.70;1.00;;;21.20;58.20;;;;;;4038957;29;20052;-42
2022/12/17 16:27:24;;;;;;;1.73;0.73;;;21.20;58.00;;;;;;4029679;29;20041;-42
2022/12/17 16:29:47;;;;;;;1.80;0.90;;;21.20;58.00;;;;;;4038353;29;20045;-42
2022/12/17 16:32:10;;;;;;;1.38;0.70;;;21.20;58.00;;;;;;4037825;29;20552;-41
2022/12/17 16:34:32;;;;;;;3.65;1.35;;;21.20;58.00;;;;;;4039459;29;20402;-42
2022/12/17 16:36:55;;;;;;;3.83;0.85;;;21.20;58.00;;;;;;4038752;29;20047;-43
2022/12/17 16:39:19;;;;;;;4.68;1.20;;;21.20;58.10;;;;;;4050540;29;20127;-43
2022/12/17 16:41:42;;;;;;;2.42;0.93;;;21.20;58.00;;;;;;4039089;29;20406;-43
2022/12/17 16:44:05;;;;;;;4.15;1.00;;;21.20;58.00;;;;;;4035259;29;20161;-43
2022/12/17 16:46:31;;;;;;;2.10;0.93;;;21.20;58.30;;;;;;4039365;29;20048;-41
2022/12/17 16:49:03;;;;;;;3.28;0.90;;;21.20;58.20;;;;;;4043067;29;20053;-43
2022/12/17 16:51:27;;;;;;;2.95;0.75;;;21.20;58.30;;;;;;4033851;29;20390;-44
2022/12/17 16:53:50;;;;;;;2.83;0.95;;;21.20;58.30;;;;;;4028130;29;20047;-41
2022/12/17 16:56:18;;;;;;;3.22;1.10;;;21.20;58.40;;;;;;4030929;29;20033;-42
2022/12/17 16:58:41;;;;;;;1.92;0.85;;;21.10;58.10;;;;;;4039448;29;20131;-42
2022/12/17 17:01:04;;;;;;;2.00;0.75;;;21.10;58.10;;;;;;4036365;29;20040;-43
2022/12/17 17:03:26;;;;;;;1.55;0.73;;;21.10;58.60;;;;;;4038077;29;20049;-41
2022/12/17 17:05:49;;;;;;;2.25;0.82;;;21.10;58.30;;;;;;4038213;29;20040;-45
2022/12/17 17:08:11;;;;;;;3.42;0.80;;;21.10;59.10;;;;;;4039121;29;20040;-45
2022/12/17 17:10:36;;;;;;;3.10;0.90;;;21.10;58.40;;;;;;4037564;29;20047;-42
2022/12/17 17:12:58;;;;;;;1.58;0.80;;;21.10;58.40;;;;;;4036513;29;20461;-43
2022/12/17 17:15:21;;;;;;;2.15;0.77;;;21.10;58.50;;;;;;4030713;29;20481;-41
2022/12/17 17:17:44;;;;;;;2.15;0.80;;;21.10;58.40;;;;;;4043879;29;20047;-43
2022/12/17 17:20:07;;;;;;;3.40;1.20;;;21.10;58.50;;;;;;4038790;29;20032;-42
2022/12/17 17:22:29;;;;;;;1.52;0.70;;;21.00;58.50;;;;;;4030871;29;20052;-47
2022/12/17 17:24:52;;;;;;;1.17;0.50;;;21.00;58.20;;;;;;4037627;29;20032;-44
2022/12/17 17:27:14;;;;;;;1.88;0.68;;;21.00;58.50;;;;;;4038809;29;20041;-43
2022/12/17 17:29:37;;;;;;;1.27;0.50;;;21.00;58.40;;;;;;4038237;29;20044;-42
2022/12/17 17:31:59;;;;;;;2.72;1.05;;;21.00;58.70;;;;;;4036568;29;20492;-47
2022/12/17 17:34:22;;;;;;;1.95;0.70;;;21.00;58.60;;;;;;4037559;29;20089;-42
2022/12/17 17:36:45;;;;;;;1.40;0.70;;;20.90;58.60;;;;;;4038095;29;20052;-44
2022/12/17 17:39:07;;;;;;;2.33;0.70;;;21.00;58.60;;;;;;4029130;29;20056;-42
2022/12/17 17:41:32;;;;;;;2.95;1.00;;;20.90;58.50;;;;;;4034821;29;20088;-44
2022/12/17 17:43:57;;;;;;;1.52;0.70;;;20.90;59.20;;;;;;4032605;29;20592;-45
2022/12/17 17:46:20;;;;;;;1.33;0.57;;;20.90;58.50;;;;;;4037445;29;20079;-50
2022/12/17 17:48:44;;;;;;;1.90;1.15;;;20.90;58.40;;;;;;4029752;29;20047;-45
2022/12/17 17:51:17;;;;;;;;;;;20.90;58.50;;;;;;4039156;29;20420;-44
2022/12/17 17:53:40;;;;;;;1.45;0.80;;;20.90;58.30;;;;;;4037804;29;20014;-46
2022/12/17 17:56:04;;;;;;;1.30;0.80;;;20.90;58.60;;;;;;4035077;29;20040;-45
2022/12/17 17:58:27;;;;;;;5.53;0.98;;;20.90;58.60;;;;;;4038097;29;20068;-44
2022/12/17 18:00:49;;;;;;;1.83;0.80;;;20.90;58.60;;;;;;4029571;29;20075;-43
2022/12/17 18:03:12;;;;;;;2.35;0.85;;;20.80;58.60;;;;;;4028746;29;20178;-44
2022/12/17 18:05:41;;;;;;;2.20;0.77;;;20.90;58.80;;;;;;4038838;29;20044;-43
2022/12/17 18:08:03;;;;;;;1.50;0.40;;;20.80;58.70;;;;;;4037370;29;20044;-44
2022/12/17 18:10:27;;;;;;;1.55;0.52;;;20.80;58.60;;;;;;4050751;29;20095;-50
2022/12/17 18:15:30;;;;;;;3.22;0.80;;;20.80;58.40;;;;;;4038369;29;20439;-44
2022/12/17 18:17:53;;;;;;;3.22;1.00;;;20.80;58.50;;;;;;4029923;29;20052;-44
2022/12/17 18:20:16;;;;;;;1.60;0.55;;;20.80;58.50;;;;;;4037361;29;20044;-47
2022/12/17 18:22:39;;;;;;;2.13;0.60;;;20.80;58.60;;;;;;4031632;29;20133;-45
2022/12/17 18:25:01;;;;;;;2.72;0.77;;;20.80;58.40;;;;;;4038173;29;20489;-42
2022/12/17 18:27:24;;;;;;;1.38;0.50;;;20.80;58.40;;;;;;4037624;29;20472;-42
2022/12/17 18:29:46;;;;;;;1.50;0.70;;;20.80;58.30;;;;;;4029116;29;20406;-43
2022/12/17 18:32:09;;;;;;;1.85;0.73;;;20.80;58.60;;;;;;4036975;29;20052;-44
2022/12/17 18:34:34;;;;;;;2.28;0.63;;;20.80;58.70;;;;;;4036075;29;20046;-40
2022/12/17 18:36:56;;;;;;;1.70;0.70;;;20.80;58.60;;;;;;4037023;29;20040;-40
2022/12/17 18:39:24;;;;;;;1.00;0.50;;;20.80;58.80;;;;;;4038250;29;20655;-40
2022/12/17 18:44:31;;;;;;;8.73;1.50;;;20.70;58.30;;;;;;4036803;29;20048;-41
2022/12/17 18:46:53;;;;;;;;;;;20.70;58.70;;;;;;4038051;29;20412;-43
2022/12/17 18:49:17;;;;;;;7.90;0.85;;;20.70;58.80;;;;;;4038851;29;19915;-42
2022/12/17 18:52:07;;;;;;;1.52;0.77;;;20.70;58.70;;;;;;4049883;29;20046;-44
2022/12/17 19:01:05;;;;;;;0.75;0.50;;;20.70;58.30;;;;;;4030067;29;20713;-41
2022/12/17 19:03:28;;;;;;;1.95;0.50;;;20.70;58.50;;;;;;4034895;29;20036;-43
2022/12/17 19:05:50;;;;;;;1.20;0.40;;;20.70;58.50;;;;;;4042567;29;20072;-41
2022/12/17 19:08:13;;;;;;;1.33;0.82;;;20.60;58.40;;;;;;4039523;29;20041;-43
2022/12/17 19:10:37;;;;;;;0.73;0.40;;;20.60;58.50;;;;;;4039678;29;20052;-42
2022/12/17 19:13:00;;;;;;;1.65;0.55;;;20.60;58.40;;;;;;4039300;29;20036;-44
2022/12/17 19:15:22;;;;;;;1.17;0.50;;;20.60;58.60;;;;;;4040270;29;20044;-41
2022/12/17 19:17:49;;;;;;;1.02;0.40;;;20.60;58.60;;;;;;4039232;29;20078;-43
2022/12/17 19:20:12;;;;;;;4.28;0.50;;;20.60;58.60;;;;;;4040253;29;20145;-44
2022/12/17 19:22:34;;;;;;;1.13;0.35;;;20.60;59.30;;;;;;4030310;29;20970;-43
2022/12/17 19:24:57;;;;;;;2.05;0.45;;;20.50;58.50;;;;;;4041437;29;20048;-42
2022/12/17 19:27:19;;;;;;;1.05;0.50;;;20.50;58.60;;;;;;4040296;29;20046;-42
2022/12/17 19:29:42;;;;;;;1.08;0.50;;;20.50;58.50;;;;;;4041429;29;20059;-41
2022/12/17 19:32:04;;;;;;;0.93;0.40;;;20.50;58.60;;;;;;4039136;29;20798;-45
2022/12/17 19:34:27;;;;;;;0.95;0.40;;;20.50;58.60;;;;;;4039306;29;20067;-42
2022/12/17 19:36:50;;;;;;;1.25;0.50;;;20.50;58.90;;;;;;4040344;29;20104;-42
2022/12/17 19:39:15;;;;;;;0.43;0.30;;;20.50;58.70;;;;;;4039725;29;20044;-44
2022/12/17 19:41:38;;;;;;;0.80;0.30;;;20.50;58.50;;;;;;4039116;29;20103;-42
2022/12/17 19:44:06;;;;;;;1.23;0.50;;;20.50;58.50;;;;;;4039396;29;20053;-40
2022/12/17 19:46:31;;;;;;;0.75;0.60;;;20.50;58.40;;;;;;4032753;29;20040;-41
2022/12/17 19:48:54;;;;;;;1.70;0.63;;;20.50;58.50;;;;;;4028512;29;20552;-42
2022/12/17 19:51:20;;;;;;;5.68;0.90;;;20.50;58.50;;;;;;4028719;29;20041;-44
2022/12/17 19:53:44;;;;;;;0.57;0.43;;;20.50;58.80;;;;;;4039018;29;20116;-46
2022/12/17 19:56:18;;;;;;;1.00;0.60;;;20.40;58.70;;;;;;4037637;29;20044;-43
2022/12/17 19:58:42;;;;;;;1.50;0.55;;;20.40;58.70;;;;;;4038299;29;20146;-45
2022/12/17 20:01:13;;;;;;;1.65;0.65;;;20.40;58.60;;;;;;4039083;29;20132;-42
2022/12/17 20:03:37;;;;;;;1.27;0.50;;;20.40;58.60;;;;;;4037394;29;20079;-42
2022/12/17 20:06:00;;;;;;;2.03;0.70;;;20.40;58.90;;;;;;4038091;29;20048;-42
2022/12/17 20:08:23;;;;;;;1.10;0.70;;;20.40;59.00;;;;;;4038878;29;20037;-42
2022/12/17 20:10:45;;;;;;;1.67;0.70;;;20.40;58.80;;;;;;4040351;29;20560;-42
2022/12/17 20:13:08;;;;;;;0.95;0.55;;;20.50;59.10;;;;;;4037958;29;20059;-44
2022/12/17 20:15:31;;;;;;;2.60;0.50;;;20.40;59.30;;;;;;4039488;29;20047;-42
2022/12/17 20:17:53;;;;;;;3.33;0.75;;;20.40;59.30;;;;;;4028158;29;20048;-43
2022/12/17 20:20:16;;;;;;;3.08;0.95;;;20.40;59.50;;;;;;4038665;29;20490;-41
2022/12/17 20:22:38;;;;;;;2.25;0.57;;;20.40;59.20;;;;;;4034282;29;20084;-51
2022/12/17 20:25:03;;;;;;;1.42;0.60;;;20.40;59.20;;;;;;4021166;29;20068;-45
2022/12/17 20:27:26;;;;;;;1.20;0.50;;;20.40;59.40;;;;;;4025642;29;20048;-44
2022/12/17 20:29:49;;;;;;;1.95;0.88;;;20.40;59.40;;;;;;4019358;29;20096;-42
2022/12/17 20:32:11;;;;;;;0.75;0.38;;;20.40;59.80;;;;;;4021163;29;20068;-45
2022/12/17 20:34:34;;;;;;;1.88;0.50;;;20.40;59.30;;;;;;4023012;29;20061;-44
2022/12/17 20:36:56;;;;;;;1.02;0.68;;;20.40;59.70;;;;;;4025220;29;20036;-44
2022/12/17 20:39:19;;;;;;;3.03;0.63;;;20.40;59.60;;;;;;4022925;29;20456;-44
2022/12/17 20:41:43;;;;;;;1.10;0.63;;;20.40;59.80;;;;;;4023033;29;20040;-44
2022/12/17 20:44:10;;;;;;;1.48;0.60;;;20.40;59.90;;;;;;4024812;29;20163;-44
2022/12/17 20:46:33;;;;;;;1.15;0.57;;;20.40;59.80;;;;;;4031237;29;20783;-44
2022/12/17 20:48:57;;;;;;;0.73;0.40;;;20.40;59.70;;;;;;4017859;29;20584;-46
2022/12/17 20:51:25;;;;;;;2.35;0.85;;;20.40;60.00;;;;;;4032589;29;20295;-48
2022/12/17 20:53:48;;;;;;;1.48;0.55;;;20.40;59.90;;;;;;4016876;29;20164;-44
2022/12/17 20:56:14;;;;;;;1.30;0.90;;;20.30;59.80;;;;;;4034392;29;20044;-43
2022/12/17 20:58:37;;;;;;;1.20;0.50;;;20.30;60.00;;;;;;4037555;29;20436;-46
2022/12/17 21:01:20;;;;;;;2.20;0.95;;;20.30;60.00;;;;;;4028414;29;20041;-42
2022/12/17 21:03:43;;;;;;;1.48;0.90;;;20.30;59.90;;;;;;4023879;29;20057;-44
2022/12/17 21:06:06;;;;;;;1.73;0.60;;;20.30;60.40;;;;;;4023318;29;20135;-42
2022/12/17 21:08:28;;;;;;;0.70;0.50;;;20.30;60.30;;;;;;4026882;29;20047;-43
2022/12/17 21:10:56;;;;;;;2.33;0.68;;;20.30;60.60;;;;;;4021058;29;20115;-41
2022/12/17 21:13:30;;;;;;;1.85;0.85;;;20.30;60.50;;;;;;4021853;29;20036;-45
2022/12/17 21:15:53;;;;;;;1.40;0.60;;;20.30;60.60;;;;;;4025428;29;20045;-42
2022/12/17 21:18:16;;;;;;;2.25;0.70;;;20.30;60.50;;;;;;4030983;29;20038;-44
2022/12/17 21:20:38;;;;;;;0.90;0.60;;;20.30;60.30;;;;;;4029678;29;20124;-48
2022/12/17 21:23:01;;;;;;;3.33;0.70;;;20.30;60.50;;;;;;4030888;29;20094;-45
2022/12/17 21:25:24;;;;;;;0.80;0.45;;;20.30;60.40;;;;;;4029736;29;20484;-43
2022/12/17 21:27:47;;;;;;;1.58;0.68;;;20.30;60.00;;;;;;4023179;29;20412;-46
2022/12/17 21:30:10;;;;;;;1.83;0.70;;;20.30;60.60;;;;;;4015540;29;20135;-46
2022/12/17 21:32:33;;;;;;;2.60;0.87;;;20.30;60.40;;;;;;4046516;29;20040;-42
2022/12/17 21:34:55;;;;;;;2.10;0.70;;;20.30;60.60;;;;;;4029326;29;20300;-46
2022/12/17 21:37:18;;;;;;;3.25;0.73;;;20.30;60.30;;;;;;4029955;29;20040;-48
2022/12/17 21:39:40;;;;;;;2.10;0.77;;;20.30;60.60;;;;;;4030955;29;20143;-44
2022/12/17 21:44:44;;;;;;;3.30;1.15;;;20.30;60.40;;;;;;4025594;29;20067;-45
2022/12/17 21:47:06;;;;;;;4.25;0.82;;;20.30;60.60;;;;;;4027244;29;20032;-46
2022/12/17 21:49:29;;;;;;;2.40;0.90;;;20.30;60.50;;;;;;4028714;29;20045;-45
2022/12/17 21:51:52;;;;;;;1.10;0.60;;;20.30;60.30;;;;;;4032439;29;20553;-46
2022/12/17 21:54:14;;;;;;;4.75;0.70;;;20.40;60.20;;;;;;4036748;29;20033;-47
2022/12/17 21:56:37;;;;;;;1.65;0.55;;;20.40;60.20;;;;;;4037669;29;20064;-47
2022/12/17 21:59:00;;;;;;;2.42;0.90;;;20.40;60.30;;;;;;4037531;29;20047;-48
2022/12/17 22:01:26;;;;;;;2.35;0.55;;;20.40;60.10;;;;;;4036598;29;20041;-50
2022/12/17 22:03:50;;;;;;;2.42;0.68;;;20.40;60.20;;;;;;4030288;29;20308;-45
2022/12/17 22:06:15;;;;;;;1.85;0.60;;;20.40;60.60;;;;;;4026773;29;20047;-40
2022/12/17 22:08:38;;;;;;;2.45;0.82;;;20.40;60.60;;;;;;4022563;29;20029;-44
2022/12/17 22:11:01;;;;;;;1.77;0.57;;;20.40;60.60;;;;;;4023607;29;20059;-40
2022/12/17 22:16:06;;;;;;;1.88;0.80;;;20.30;60.50;;;;;;4027762;29;20440;-44
2022/12/17 22:18:28;;;;;;;1.90;0.63;;;20.30;60.60;;;;;;4025552;29;20513;-44
2022/12/17 22:20:58;;;;;;;1.52;0.50;;;20.30;60.30;;;;;;4024612;29;20045;-43
2022/12/17 22:23:21;;;;;;;0.93;0.43;;;20.30;60.40;;;;;;4013521;29;20041;-44
2022/12/17 22:25:43;;;;;;;1.75;0.50;;;20.40;60.60;;;;;;4028085;29;20130;-47
2022/12/17 22:28:06;;;;;;;1.95;0.40;;;20.30;60.40;;;;;;4026225;29;20033;-42
2022/12/17 22:33:09;;;;;;;1.48;0.50;;;20.30;61.00;;;;;;4027206;29;20496;-43
2022/12/17 22:35:35;;;;;;;1.95;0.40;;;20.40;60.40;;;;;;4024249;29;20047;-42
2022/12/17 22:37:58;;;;;;;1.02;0.40;;;20.40;60.30;;;;;;4025883;29;20061;-42
2022/12/17 22:40:21;;;;;;;0.95;0.50;;;20.40;60.30;;;;;;4022167;29;20079;-46
2022/12/17 22:45:25;;;;;;;2.63;0.45;;;20.40;60.40;;;;;;4024452;29;20291;-41
2022/12/17 22:47:47;;;;;;;1.95;0.68;;;20.40;60.40;;;;;;4025336;29;20032;-42
2022/12/17 22:50:10;;;;;;;1.50;0.82;;;20.40;60.40;;;;;;4028248;29;20397;-40
2022/12/17 22:52:33;;;;;;;2.08;0.70;;;20.40;60.60;;;;;;4036101;29;20048;-43
2022/12/17 22:54:55;;;;;;;1.70;0.77;;;20.40;60.50;;;;;;4035490;29;20127;-48
2022/12/17 22:57:18;;;;;;;3.28;0.70;;;20.40;60.50;;;;;;4037764;29;20040;-53
2022/12/17 22:59:40;;;;;;;2.60;0.70;;;20.40;60.30;;;;;;4036832;29;20330;-46
2022/12/17 23:02:03;;;;;;;1.52;0.68;;;20.40;60.60;;;;;;4030314;29;20052;-46
2022/12/17 23:04:26;;;;;;;2.33;0.60;;;20.40;60.60;;;;;;4022314;29;20059;-49
2022/12/17 23:06:48;;;;;;;1.95;0.68;;;20.40;60.50;;;;;;4023357;29;20136;-50
2022/12/17 23:09:12;;;;;;;1.15;0.60;;;20.40;60.70;;;;;;4023930;29;20119;-46
2022/12/17 23:11:35;;;;;;;1.85;0.60;;;20.40;60.40;;;;;;4024843;29;20142;-47
2022/12/17 23:13:57;;;;;;;0.75;0.52;;;20.50;60.80;;;;;;4033106;29;20983;-50
2022/12/17 23:16:20;;;;;;;1.75;0.50;;;20.40;60.60;;;;;;4034894;29;20461;-47
2022/12/17 23:18:44;;;;;;;1.30;0.60;;;20.50;60.50;;;;;;4037189;29;20893;-46
2022/12/17 23:21:14;;;;;;;;;;;20.50;60.60;;;;;;4033181;29;20029;-48
2022/12/17 23:23:37;;;;;;;0.98;0.50;;;20.50;60.50;;;;;;4026731;29;20279;-47
2022/12/17 23:26:16;;;;;;;1.15;0.80;;;20.50;60.30;;;;;;4022733;29;20056;-45
2022/12/17 23:28:40;;;;;;;1.20;0.50;;;20.50;60.50;;;;;;4025559;29;20037;-47
2022/12/17 23:31:12;;;;;;;;;;;20.60;60.60;;;;;;4027129;29;20531;-43
2022/12/17 23:33:35;;;;;;;2.78;0.73;;;20.60;60.60;;;;;;4026698;29;19946;-46
2022/12/17 23:36:12;;;;;;;5.18;1.10;;;20.60;61.00;;;;;;4023415;29;20120;-43
2022/12/17 23:38:35;;;;;;;2.80;0.98;;;20.60;61.40;;;;;;4030845;29;20484;-46
2022/12/17 23:41:08;;;;;;;4.60;0.90;;;20.70;61.70;;;;;;4027869;29;20037;-47
2022/12/17 23:43:31;;;;;;;5.45;1.15;;;20.70;61.90;;;;;;4031629;29;20520;-45
2022/12/17 23:45:54;;;;;;;3.85;1.08;;;20.70;62.00;;;;;;4033825;29;20044;-45
2022/12/17 23:48:17;;;;;;;3.35;0.90;;;20.60;61.80;;;;;;4029566;29;20036;-48
2022/12/17 23:50:39;;;;;;;16.13;2.10;;;20.70;61.30;;;;;;4023125;29;20517;-52
2022/12/17 23:53:02;;;;;;;22.95;3.10;;;20.70;60.90;;;;;;4042661;29;20076;-51
2022/12/17 23:55:25;;;;;;;12.60;2.28;;;20.70;61.10;;;;;;4024041;29;20501;-45
2022/12/17 23:57:47;;;;;;;10.20;2.40;;;20.70;61.10;;;;;;4024968;29;20033;-48
